Baltia — 9HMG9 — position and weather

sailwx.info

Track history (hours):
 
Tides and Currents Weather Stations Pressure Air Temp Water Temp Dewpoint Dewpoint Depression Visibility Wind Speed Wind Dir Waves Ship Positions

Baltia

Last reported at 2016-Dec-02 10:33 UTC. Time now 2016-Dec-03 06:49 UTC.
Position N 36°57' W 076°25'.

Length 224 m; draft 6.2 m.

Type: Cargo ship. MMSI: 249174000.

Date/timePositionNaut miles runAvg speedWind from/ knotsBaromVisibWave heightAir tempDewpointWater temp
2016-Dec-02 10:33N 36°57' W 076°25'9 8.2
2016-Dec-02 09:31N 37°00' W 076°15'9 9.6
2016-Dec-02 08:33N 36°58' W 076°04'13 1.2
2016-Dec-01 21:22N 37°11' W 076°05'0 0.0
2016-Dec-01 20:31N 37°11' W 076°05'0 0.0
2016-Dec-01 18:10N 37°11' W 076°05'0 0.1
2016-Dec-01 17:19N 37°11' W 076°05'0 0.0
2016-Dec-01 16:33N 37°11' W 076°05'0 0.0
2016-Dec-01 15:33N 37°11' W 076°05'0 0.0
2016-Dec-01 14:33N 37°11' W 076°05'1 0.8
2016-Dec-01 13:33N 37°10' W 076°05'9 8.6
2016-Dec-01 12:33N 37°02' W 076°03'9 8.8
2016-Dec-01 11:33N 36°57' W 075°55'8 3.7
2016-Dec-01 09:25N 37°00' W 075°46'  
Track history (hours):
 
Tides and Currents Weather Stations Pressure Air Temp Water Temp Dewpoint Dewpoint Depression Visibility Wind Speed Wind Dir Waves Ship Positions

Baltia

Last reported at 2016-Dec-02 10:33 UTC. Time now 2016-Dec-03 06:49 UTC.
Position N 36°57' W 076°25'.

Length 224 m; draft 6.2 m.

Type: Cargo ship. MMSI: 249174000.

Date/timePositionNaut miles runAvg speedWind from/ knotsBaromVisibWave heightAir tempDewpointWater temp
2016-Dec-02 10:33N 36°57' W 076°25'9 8.2
2016-Dec-02 09:31N 37°00' W 076°15'9 9.6
2016-Dec-02 08:33N 36°58' W 076°04'13 1.2
2016-Dec-01 21:22N 37°11' W 076°05'0 0.0
2016-Dec-01 20:31N 37°11' W 076°05'0 0.0
2016-Dec-01 18:10N 37°11' W 076°05'0 0.1
2016-Dec-01 17:19N 37°11' W 076°05'0 0.0
2016-Dec-01 16:33N 37°11' W 076°05'0 0.0
2016-Dec-01 15:33N 37°11' W 076°05'0 0.0
2016-Dec-01 14:33N 37°11' W 076°05'1 0.8
2016-Dec-01 13:33N 37°10' W 076°05'9 8.6
2016-Dec-01 12:33N 37°02' W 076°03'9 8.8
2016-Dec-01 11:33N 36°57' W 075°55'8 3.7
2016-Dec-01 09:25N 37°00' W 075°46'  

Dump ship's entire track history